sensor_id;sensor_type;location;lat;lon;timestamp;temperature;humidity
1337;DHT22;662;48.814;9.318;2022-09-21T00:02:00;10.70;63.70
1337;DHT22;662;48.814;9.318;2022-09-21T00:04:26;10.60;63.80
1337;DHT22;662;48.814;9.318;2022-09-21T00:06:51;10.60;63.80
1337;DHT22;662;48.814;9.318;2022-09-21T00:09:17;10.60;63.90
1337;DHT22;662;48.814;9.318;2022-09-21T00:11:43;10.60;64.00
1337;DHT22;662;48.814;9.318;2022-09-21T00:14:12;10.50;64.00
1337;DHT22;662;48.814;9.318;2022-09-21T00:16:39;10.50;64.20
1337;DHT22;662;48.814;9.318;2022-09-21T00:19:05;10.50;64.20
1337;DHT22;662;48.814;9.318;2022-09-21T00:21:31;10.50;64.30
1337;DHT22;662;48.814;9.318;2022-09-21T00:23:57;10.50;64.40
1337;DHT22;662;48.814;9.318;2022-09-21T00:26:25;10.50;64.40
1337;DHT22;662;48.814;9.318;2022-09-21T00:28:56;10.50;64.40
1337;DHT22;662;48.814;9.318;2022-09-21T00:31:23;10.50;64.40
1337;DHT22;662;48.814;9.318;2022-09-21T00:33:48;10.50;64.40
1337;DHT22;662;48.814;9.318;2022-09-21T00:36:17;10.50;64.40
1337;DHT22;662;48.814;9.318;2022-09-21T00:38:44;10.50;64.40
1337;DHT22;662;48.814;9.318;2022-09-21T00:41:13;10.50;64.20
1337;DHT22;662;48.814;9.318;2022-09-21T00:43:45;10.40;64.10
1337;DHT22;662;48.814;9.318;2022-09-21T00:46:26;10.40;64.00
1337;DHT22;662;48.814;9.318;2022-09-21T00:48:53;10.40;64.00
1337;DHT22;662;48.814;9.318;2022-09-21T00:51:19;10.40;64.60
1337;DHT22;662;48.814;9.318;2022-09-21T00:53:45;10.30;63.70
1337;DHT22;662;48.814;9.318;2022-09-21T00:56:13;10.30;63.90
1337;DHT22;662;48.814;9.318;2022-09-21T00:58:45;10.20;64.00
1337;DHT22;662;48.814;9.318;2022-09-21T01:01:11;10.20;64.10
1337;DHT22;662;48.814;9.318;2022-09-21T01:03:39;10.20;64.20
1337;DHT22;662;48.814;9.318;2022-09-21T01:06:12;10.10;64.30
1337;DHT22;662;48.814;9.318;2022-09-21T01:08:39;10.10;64.40
1337;DHT22;662;48.814;9.318;2022-09-21T01:11:23;10.10;64.40
1337;DHT22;662;48.814;9.318;2022-09-21T01:22:47;10.00;64.70
1337;DHT22;662;48.814;9.318;2022-09-21T01:28:11;9.90;66.20
1337;DHT22;662;48.814;9.318;2022-09-21T01:30:42;9.90;66.30
1337;DHT22;662;48.814;9.318;2022-09-21T01:33:14;9.90;66.40
1337;DHT22;662;48.814;9.318;2022-09-21T01:35:48;9.90;66.40
1337;DHT22;662;48.814;9.318;2022-09-21T01:38:27;9.90;66.50
1337;DHT22;662;48.814;9.318;2022-09-21T01:40:57;9.90;66.60
1337;DHT22;662;48.814;9.318;2022-09-21T01:43:31;9.90;66.50
1337;DHT22;662;48.814;9.318;2022-09-21T01:45:59;9.90;66.40
1337;DHT22;662;48.814;9.318;2022-09-21T01:48:32;9.90;66.20
1337;DHT22;662;48.814;9.318;2022-09-21T01:51:01;9.90;66.70
1337;DHT22;662;48.814;9.318;2022-09-21T01:53:48;9.80;65.80
1337;DHT22;662;48.814;9.318;2022-09-21T02:01:31;9.80;65.70
1337;DHT22;662;48.814;9.318;2022-09-21T02:04:03;9.80;65.70
1337;DHT22;662;48.814;9.318;2022-09-21T02:06:30;9.70;65.70
1337;DHT22;662;48.814;9.318;2022-09-21T02:08:56;9.70;65.80
1337;DHT22;662;48.814;9.318;2022-09-21T02:11:23;9.70;65.80
1337;DHT22;662;48.814;9.318;2022-09-21T02:13:50;9.70;65.90
1337;DHT22;662;48.814;9.318;2022-09-21T02:16:33;9.70;66.00
1337;DHT22;662;48.814;9.318;2022-09-21T02:19:13;9.60;65.90
1337;DHT22;662;48.814;9.318;2022-09-21T02:22:04;9.60;65.90
1337;DHT22;662;48.814;9.318;2022-09-21T02:24:39;9.60;66.00
1337;DHT22;662;48.814;9.318;2022-09-21T02:30:22;9.50;66.10
1337;DHT22;662;48.814;9.318;2022-09-21T02:33:04;9.40;66.00
1337;DHT22;662;48.814;9.318;2022-09-21T02:35:47;9.40;66.20
1337;DHT22;662;48.814;9.318;2022-09-21T02:38:35;9.40;66.30
1337;DHT22;662;48.814;9.318;2022-09-21T02:41:14;9.40;66.40
1337;DHT22;662;48.814;9.318;2022-09-21T02:46:53;9.50;66.70
1337;DHT22;662;48.814;9.318;2022-09-21T02:49:29;9.40;66.60
1337;DHT22;662;48.814;9.318;2022-09-21T02:52:02;9.40;66.70
1337;DHT22;662;48.814;9.318;2022-09-21T02:54:31;9.40;66.80
1337;DHT22;662;48.814;9.318;2022-09-21T02:56:57;9.50;66.90
1337;DHT22;662;48.814;9.318;2022-09-21T02:59:24;9.40;66.80
1337;DHT22;662;48.814;9.318;2022-09-21T03:01:51;9.50;66.70
1337;DHT22;662;48.814;9.318;2022-09-21T03:04:17;9.40;66.50
1337;DHT22;662;48.814;9.318;2022-09-21T03:06:42;9.50;66.50
1337;DHT22;662;48.814;9.318;2022-09-21T03:09:08;9.50;66.40
1337;DHT22;662;48.814;9.318;2022-09-21T03:11:34;9.50;66.30
1337;DHT22;662;48.814;9.318;2022-09-21T03:14:03;9.50;66.30
1337;DHT22;662;48.814;9.318;2022-09-21T03:16:34;9.40;66.10
1337;DHT22;662;48.814;9.318;2022-09-21T03:18:59;9.40;66.10
1337;DHT22;662;48.814;9.318;2022-09-21T03:21:25;9.40;66.00
1337;DHT22;662;48.814;9.318;2022-09-21T03:23:51;9.40;66.00
1337;DHT22;662;48.814;9.318;2022-09-21T03:26:17;9.40;66.00
1337;DHT22;662;48.814;9.318;2022-09-21T03:28:47;9.40;65.90
1337;DHT22;662;48.814;9.318;2022-09-21T03:31:13;9.40;65.90
1337;DHT22;662;48.814;9.318;2022-09-21T03:33:39;9.30;65.70
1337;DHT22;662;48.814;9.318;2022-09-21T03:36:05;9.30;65.60
1337;DHT22;662;48.814;9.318;2022-09-21T03:38:30;9.30;65.50
1337;DHT22;662;48.814;9.318;2022-09-21T03:40:56;9.30;65.50
1337;DHT22;662;48.814;9.318;2022-09-21T03:43:22;9.20;65.30
1337;DHT22;662;48.814;9.318;2022-09-21T03:45:48;9.20;65.10
1337;DHT22;662;48.814;9.318;2022-09-21T03:48:14;9.20;65.10
1337;DHT22;662;48.814;9.318;2022-09-21T03:50:40;9.10;65.00
1337;DHT22;662;48.814;9.318;2022-09-21T03:53:06;9.10;65.00
1337;DHT22;662;48.814;9.318;2022-09-21T03:55:32;9.10;65.10
1337;DHT22;662;48.814;9.318;2022-09-21T03:57:59;9.00;65.20
1337;DHT22;662;48.814;9.318;2022-09-21T04:00:25;9.00;65.50
1337;DHT22;662;48.814;9.318;2022-09-21T04:02:51;9.00;65.70
1337;DHT22;662;48.814;9.318;2022-09-21T04:05:17;8.90;65.80
1337;DHT22;662;48.814;9.318;2022-09-21T04:07:43;8.90;66.00
1337;DHT22;662;48.814;9.318;2022-09-21T04:10:17;8.90;66.20
1337;DHT22;662;48.814;9.318;2022-09-21T04:12:45;8.90;66.40
1337;DHT22;662;48.814;9.318;2022-09-21T04:15:13;8.80;66.50
1337;DHT22;662;48.814;9.318;2022-09-21T04:17:39;8.70;66.70
1337;DHT22;662;48.814;9.318;2022-09-21T04:20:06;8.70;67.00
1337;DHT22;662;48.814;9.318;2022-09-21T04:22:33;8.60;67.20
1337;DHT22;662;48.814;9.318;2022-09-21T04:24:59;8.60;67.60
1337;DHT22;662;48.814;9.318;2022-09-21T04:27:25;8.50;68.00
1337;DHT22;662;48.814;9.318;2022-09-21T04:29:51;8.50;68.40
1337;DHT22;662;48.814;9.318;2022-09-21T04:32:17;8.60;68.80
1337;DHT22;662;48.814;9.318;2022-09-21T04:34:43;8.60;68.90
1337;DHT22;662;48.814;9.318;2022-09-21T04:37:09;8.60;69.00
1337;DHT22;662;48.814;9.318;2022-09-21T04:39:38;8.60;69.00
1337;DHT22;662;48.814;9.318;2022-09-21T04:42:04;8.60;68.90
1337;DHT22;662;48.814;9.318;2022-09-21T04:44:30;8.60;68.70
1337;DHT22;662;48.814;9.318;2022-09-21T04:46:56;8.60;68.50
1337;DHT22;662;48.814;9.318;2022-09-21T04:49:22;8.60;68.40
1337;DHT22;662;48.814;9.318;2022-09-21T04:51:48;8.60;68.20
1337;DHT22;662;48.814;9.318;2022-09-21T04:54:14;8.60;68.20
1337;DHT22;662;48.814;9.318;2022-09-21T04:56:39;8.60;68.30
1337;DHT22;662;48.814;9.318;2022-09-21T04:59:05;8.60;68.40
1337;DHT22;662;48.814;9.318;2022-09-21T05:01:31;8.60;68.70
1337;DHT22;662;48.814;9.318;2022-09-21T05:03:56;8.60;68.80
1337;DHT22;662;48.814;9.318;2022-09-21T05:06:28;8.60;68.80
1337;DHT22;662;48.814;9.318;2022-09-21T05:08:54;8.60;68.80
1337;DHT22;662;48.814;9.318;2022-09-21T05:11:38;8.70;68.90
1337;DHT22;662;48.814;9.318;2022-09-21T05:14:04;8.70;69.00
1337;DHT22;662;48.814;9.318;2022-09-21T05:16:30;8.60;68.90
1337;DHT22;662;48.814;9.318;2022-09-21T05:18:55;8.60;68.90
1337;DHT22;662;48.814;9.318;2022-09-21T05:21:21;8.60;69.00
1337;DHT22;662;48.814;9.318;2022-09-21T05:23:48;8.60;69.10
1337;DHT22;662;48.814;9.318;2022-09-21T05:26:13;8.60;69.20
1337;DHT22;662;48.814;9.318;2022-09-21T05:28:39;8.60;69.00
1337;DHT22;662;48.814;9.318;2022-09-21T05:31:30;8.60;69.00
1337;DHT22;662;48.814;9.318;2022-09-21T05:37:11;8.60;69.30
1337;DHT22;662;48.814;9.318;2022-09-21T05:39:41;8.60;70.00
1337;DHT22;662;48.814;9.318;2022-09-21T05:42:09;8.60;69.30
1337;DHT22;662;48.814;9.318;2022-09-21T05:44:35;8.60;69.40
1337;DHT22;662;48.814;9.318;2022-09-21T05:52:44;8.50;69.40
1337;DHT22;662;48.814;9.318;2022-09-21T05:58:05;8.50;69.90
1337;DHT22;662;48.814;9.318;2022-09-21T06:00:48;8.50;70.00
1337;DHT22;662;48.814;9.318;2022-09-21T06:03:29;8.50;70.40
1337;DHT22;662;48.814;9.318;2022-09-21T06:05:56;8.40;70.60
1337;DHT22;662;48.814;9.318;2022-09-21T06:08:22;8.40;70.90
1337;DHT22;662;48.814;9.318;2022-09-21T06:10:48;8.40;71.30
1337;DHT22;662;48.814;9.318;2022-09-21T06:13:14;8.40;71.50
1337;DHT22;662;48.814;9.318;2022-09-21T06:15:39;8.40;71.70
1337;DHT22;662;48.814;9.318;2022-09-21T06:18:07;8.50;71.80
1337;DHT22;662;48.814;9.318;2022-09-21T06:20:33;8.50;71.90
1337;DHT22;662;48.814;9.318;2022-09-21T06:23:03;8.50;71.90
1337;DHT22;662;48.814;9.318;2022-09-21T06:25:29;8.50;71.90
1337;DHT22;662;48.814;9.318;2022-09-21T06:28:00;8.50;71.90
1337;DHT22;662;48.814;9.318;2022-09-21T06:30:25;8.50;71.80
1337;DHT22;662;48.814;9.318;2022-09-21T06:32:51;8.60;71.90
1337;DHT22;662;48.814;9.318;2022-09-21T06:35:17;8.60;71.70
1337;DHT22;662;48.814;9.318;2022-09-21T06:37:42;8.70;71.80
1337;DHT22;662;48.814;9.318;2022-09-21T06:40:08;8.70;71.60
1337;DHT22;662;48.814;9.318;2022-09-21T06:42:34;8.70;71.60
1337;DHT22;662;48.814;9.318;2022-09-21T06:44:59;8.70;71.80
1337;DHT22;662;48.814;9.318;2022-09-21T06:47:25;8.80;72.60
1337;DHT22;662;48.814;9.318;2022-09-21T06:49:51;8.80;72.00
1337;DHT22;662;48.814;9.318;2022-09-21T06:52:18;8.80;71.80
1337;DHT22;662;48.814;9.318;2022-09-21T06:54:43;8.80;71.60
1337;DHT22;662;48.814;9.318;2022-09-21T06:57:09;8.90;71.90
1337;DHT22;662;48.814;9.318;2022-09-21T06:59:35;9.00;72.10
1337;DHT22;662;48.814;9.318;2022-09-21T07:02:00;9.10;72.00
1337;DHT22;662;48.814;9.318;2022-09-21T07:04:26;9.10;71.80
1337;DHT22;662;48.814;9.318;2022-09-21T07:06:54;9.20;71.80
1337;DHT22;662;48.814;9.318;2022-09-21T07:09:19;9.20;71.80
1337;DHT22;662;48.814;9.318;2022-09-21T07:11:45;9.30;71.80
1337;DHT22;662;48.814;9.318;2022-09-21T07:14:12;9.40;71.90
1337;DHT22;662;48.814;9.318;2022-09-21T07:16:39;9.40;71.70
1337;DHT22;662;48.814;9.318;2022-09-21T07:19:05;9.50;71.80
1337;DHT22;662;48.814;9.318;2022-09-21T07:21:31;9.60;71.90
1337;DHT22;662;48.814;9.318;2022-09-21T07:23:59;9.70;71.90
1337;DHT22;662;48.814;9.318;2022-09-21T07:26:26;9.80;71.80
1337;DHT22;662;48.814;9.318;2022-09-21T07:28:52;9.90;71.70
1337;DHT22;662;48.814;9.318;2022-09-21T07:31:17;10.00;70.40
1337;DHT22;662;48.814;9.318;2022-09-21T07:33:44;10.20;70.40
1337;DHT22;662;48.814;9.318;2022-09-21T07:36:12;10.20;70.30
1337;DHT22;662;48.814;9.318;2022-09-21T07:38:40;10.40;70.30
1337;DHT22;662;48.814;9.318;2022-09-21T07:41:12;10.50;70.20
1337;DHT22;662;48.814;9.318;2022-09-21T07:43:38;10.60;70.00
1337;DHT22;662;48.814;9.318;2022-09-21T07:46:09;10.70;70.30
1337;DHT22;662;48.814;9.318;2022-09-21T07:48:35;10.80;69.80
1337;DHT22;662;48.814;9.318;2022-09-21T07:51:03;11.00;70.40
1337;DHT22;662;48.814;9.318;2022-09-21T07:53:31;11.10;69.60
1337;DHT22;662;48.814;9.318;2022-09-21T07:56:08;11.20;69.50
1337;DHT22;662;48.814;9.318;2022-09-21T07:58:35;11.20;68.80
1337;DHT22;662;48.814;9.318;2022-09-21T08:01:20;11.20;68.70
1337;DHT22;662;48.814;9.318;2022-09-21T08:03:53;11.20;68.80
1337;DHT22;662;48.814;9.318;2022-09-21T08:06:19;11.20;68.80
1337;DHT22;662;48.814;9.318;2022-09-21T08:08:46;11.20;68.90
1337;DHT22;662;48.814;9.318;2022-09-21T08:11:19;11.20;68.90
1337;DHT22;662;48.814;9.318;2022-09-21T08:13:47;11.30;69.00
1337;DHT22;662;48.814;9.318;2022-09-21T08:16:13;11.40;69.10
1337;DHT22;662;48.814;9.318;2022-09-21T08:18:40;11.50;69.10
1337;DHT22;662;48.814;9.318;2022-09-21T08:21:06;11.60;69.20
1337;DHT22;662;48.814;9.318;2022-09-21T08:23:32;11.60;69.10
1337;DHT22;662;48.814;9.318;2022-09-21T08:26:03;11.80;69.30
1337;DHT22;662;48.814;9.318;2022-09-21T08:28:33;11.90;69.30
1337;DHT22;662;48.814;9.318;2022-09-21T08:31:03;12.00;69.20
1337;DHT22;662;48.814;9.318;2022-09-21T08:33:30;12.10;69.10
1337;DHT22;662;48.814;9.318;2022-09-21T08:35:57;12.30;69.50
1337;DHT22;662;48.814;9.318;2022-09-21T08:38:24;12.40;69.40
1337;DHT22;662;48.814;9.318;2022-09-21T08:40:51;12.60;69.80
1337;DHT22;662;48.814;9.318;2022-09-21T08:43:39;13.00;71.10
1337;DHT22;662;48.814;9.318;2022-09-21T08:46:10;13.70;70.30
1337;DHT22;662;48.814;9.318;2022-09-21T08:48:46;15.40;68.50
1337;DHT22;662;48.814;9.318;2022-09-21T08:51:19;17.70;63.70
1337;DHT22;662;48.814;9.318;2022-09-21T08:53:49;20.00;57.30
1337;DHT22;662;48.814;9.318;2022-09-21T08:56:16;22.00;53.10
1337;DHT22;662;48.814;9.318;2022-09-21T08:58:42;23.70;49.00
1337;DHT22;662;48.814;9.318;2022-09-21T09:01:24;25.10;45.70
1337;DHT22;662;48.814;9.318;2022-09-21T09:04:08;26.30;41.20
1337;DHT22;662;48.814;9.318;2022-09-21T09:18:19;29.90;32.00
1337;DHT22;662;48.814;9.318;2022-09-21T09:20:55;30.40;31.60
1337;DHT22;662;48.814;9.318;2022-09-21T09:23:57;30.80;30.60
1337;DHT22;662;48.814;9.318;2022-09-21T09:26:35;31.00;30.20
1337;DHT22;662;48.814;9.318;2022-09-21T09:29:15;31.20;29.50
1337;DHT22;662;48.814;9.318;2022-09-21T09:31:43;31.20;28.60
1337;DHT22;662;48.814;9.318;2022-09-21T09:36:59;31.00;28.40
1337;DHT22;662;48.814;9.318;2022-09-21T09:39:29;30.80;28.70
1337;DHT22;662;48.814;9.318;2022-09-21T09:50:28;30.30;28.60
1337;DHT22;662;48.814;9.318;2022-09-21T09:53:03;30.10;28.20
1337;DHT22;662;48.814;9.318;2022-09-21T09:55:36;30.00;28.80
1337;DHT22;662;48.814;9.318;2022-09-21T09:58:03;30.20;28.90
1337;DHT22;662;48.814;9.318;2022-09-21T10:00:29;30.30;28.80
1337;DHT22;662;48.814;9.318;2022-09-21T10:02:56;30.00;28.10
1337;DHT22;662;48.814;9.318;2022-09-21T10:05:24;29.50;28.20
1337;DHT22;662;48.814;9.318;2022-09-21T10:07:55;28.50;29.00
1337;DHT22;662;48.814;9.318;2022-09-21T10:10:39;27.40;30.40
1337;DHT22;662;48.814;9.318;2022-09-21T10:13:15;26.20;32.30
1337;DHT22;662;48.814;9.318;2022-09-21T10:15:49;25.30;33.50
1337;DHT22;662;48.814;9.318;2022-09-21T10:21:04;23.70;36.20
1337;DHT22;662;48.814;9.318;2022-09-21T10:23:31;22.90;37.60
1337;DHT22;662;48.814;9.318;2022-09-21T10:26:01;22.40;38.80
1337;DHT22;662;48.814;9.318;2022-09-21T10:28:28;21.80;39.50
1337;DHT22;662;48.814;9.318;2022-09-21T10:31:17;21.50;40.40
1337;DHT22;662;48.814;9.318;2022-09-21T10:34:33;21.00;41.50
1337;DHT22;662;48.814;9.318;2022-09-21T10:36:37;20.60;42.00
1337;DHT22;662;48.814;9.318;2022-09-21T10:39:29;20.40;42.60
1337;DHT22;662;48.814;9.318;2022-09-21T10:44:43;20.00;43.20
1337;DHT22;662;48.814;9.318;2022-09-21T10:47:32;20.00;44.00
1337;DHT22;662;48.814;9.318;2022-09-21T10:50:01;19.90;44.00
1337;DHT22;662;48.814;9.318;2022-09-21T10:52:54;19.70;42.90
1337;DHT22;662;48.814;9.318;2022-09-21T10:55:22;19.50;43.20
1337;DHT22;662;48.814;9.318;2022-09-21T10:57:50;19.40;43.70
1337;DHT22;662;48.814;9.318;2022-09-21T11:02:54;19.00;44.80
1337;DHT22;662;48.814;9.318;2022-09-21T11:05:28;18.80;44.90
1337;DHT22;662;48.814;9.318;2022-09-21T11:08:05;18.70;45.30
1337;DHT22;662;48.814;9.318;2022-09-21T11:13:22;19.50;45.40
1337;DHT22;662;48.814;9.318;2022-09-21T11:21:08;21.40;43.20
1337;DHT22;662;48.814;9.318;2022-09-21T11:23:57;22.30;42.60
1337;DHT22;662;48.814;9.318;2022-09-21T11:26:49;23.20;39.60
1337;DHT22;662;48.814;9.318;2022-09-21T11:34:32;25.50;36.60
1337;DHT22;662;48.814;9.318;2022-09-21T11:42:54;27.20;33.70
1337;DHT22;662;48.814;9.318;2022-09-21T11:45:50;27.70;32.60
1337;DHT22;662;48.814;9.318;2022-09-21T11:51:21;28.40;31.20
1337;DHT22;662;48.814;9.318;2022-09-21T11:53:53;28.60;30.70
1337;DHT22;662;48.814;9.318;2022-09-21T11:56:33;28.70;29.60
1337;DHT22;662;48.814;9.318;2022-09-21T11:59:25;28.70;29.20
1337;DHT22;662;48.814;9.318;2022-09-21T12:10:13;29.40;29.90
1337;DHT22;662;48.814;9.318;2022-09-21T12:15:33;30.30;28.30
1337;DHT22;662;48.814;9.318;2022-09-21T12:21:08;29.70;27.10
1337;DHT22;662;48.814;9.318;2022-09-21T12:23:45;28.60;27.70
1337;DHT22;662;48.814;9.318;2022-09-21T12:26:17;27.60;28.90
1337;DHT22;662;48.814;9.318;2022-09-21T12:28:53;26.70;30.00
1337;DHT22;662;48.814;9.318;2022-09-21T12:31:32;25.90;31.00
1337;DHT22;662;48.814;9.318;2022-09-21T12:34:18;25.30;32.60
1337;DHT22;662;48.814;9.318;2022-09-21T12:39:27;25.60;33.40
1337;DHT22;662;48.814;9.318;2022-09-21T12:42:17;25.90;32.60
1337;DHT22;662;48.814;9.318;2022-09-21T12:50:21;25.80;32.30
1337;DHT22;662;48.814;9.318;2022-09-21T12:52:49;26.00;31.40
1337;DHT22;662;48.814;9.318;2022-09-21T13:01:35;24.10;33.40
1337;DHT22;662;48.814;9.318;2022-09-21T13:09:41;24.00;35.00
1337;DHT22;662;48.814;9.318;2022-09-21T13:14:44;24.90;33.90
1337;DHT22;662;48.814;9.318;2022-09-21T13:17:28;25.40;33.50
1337;DHT22;662;48.814;9.318;2022-09-21T13:20:03;26.10;33.00
1337;DHT22;662;48.814;9.318;2022-09-21T13:22:32;26.70;31.50
1337;DHT22;662;48.814;9.318;2022-09-21T13:25:06;27.20;30.80
1337;DHT22;662;48.814;9.318;2022-09-21T13:32:58;27.80;29.40
1337;DHT22;662;48.814;9.318;2022-09-21T13:38:55;28.20;29.70
1337;DHT22;662;48.814;9.318;2022-09-21T13:49:27;28.80;28.20
1337;DHT22;662;48.814;9.318;2022-09-21T13:52:02;28.90;27.50
1337;DHT22;662;48.814;9.318;2022-09-21T13:54:45;29.10;27.70
1337;DHT22;662;48.814;9.318;2022-09-21T13:59:43;28.70;27.40
1337;DHT22;662;48.814;9.318;2022-09-21T14:02:29;27.80;28.10
1337;DHT22;662;48.814;9.318;2022-09-21T14:05:24;26.80;29.20
1337;DHT22;662;48.814;9.318;2022-09-21T14:07:54;25.80;30.30
1337;DHT22;662;48.814;9.318;2022-09-21T14:10:21;24.90;31.30
1337;DHT22;662;48.814;9.318;2022-09-21T14:12:48;24.70;32.80
1337;DHT22;662;48.814;9.318;2022-09-21T14:20:36;25.40;31.20
1337;DHT22;662;48.814;9.318;2022-09-21T14:23:28;25.50;30.60
1337;DHT22;662;48.814;9.318;2022-09-21T14:25:57;25.90;30.60
1337;DHT22;662;48.814;9.318;2022-09-21T14:28:34;26.10;30.40
1337;DHT22;662;48.814;9.318;2022-09-21T14:31:07;26.20;29.50
1337;DHT22;662;48.814;9.318;2022-09-21T14:33:42;26.00;29.80
1337;DHT22;662;48.814;9.318;2022-09-21T14:36:14;25.90;29.90
1337;DHT22;662;48.814;9.318;2022-09-21T14:38:44;25.70;29.60
1337;DHT22;662;48.814;9.318;2022-09-21T14:41:17;25.50;29.70
1337;DHT22;662;48.814;9.318;2022-09-21T14:43:49;25.10;30.20
1337;DHT22;662;48.814;9.318;2022-09-21T14:46:42;24.80;30.70
1337;DHT22;662;48.814;9.318;2022-09-21T14:52:38;24.00;30.40
1337;DHT22;662;48.814;9.318;2022-09-21T15:00:43;22.60;32.00
1337;DHT22;662;48.814;9.318;2022-09-21T15:06:10;21.80;33.00
1337;DHT22;662;48.814;9.318;2022-09-21T15:18:19;20.20;34.90
1337;DHT22;662;48.814;9.318;2022-09-21T15:21:17;20.00;35.30
1337;DHT22;662;48.814;9.318;2022-09-21T15:23:43;19.70;35.90
1337;DHT22;662;48.814;9.318;2022-09-21T15:28:51;19.40;35.80
1337;DHT22;662;48.814;9.318;2022-09-21T15:31:18;19.20;36.60
1337;DHT22;662;48.814;9.318;2022-09-21T15:33:45;19.00;36.80
1337;DHT22;662;48.814;9.318;2022-09-21T15:36:20;18.90;36.90
1337;DHT22;662;48.814;9.318;2022-09-21T15:38:50;18.70;37.10
1337;DHT22;662;48.814;9.318;2022-09-21T15:41:36;18.60;37.60
1337;DHT22;662;48.814;9.318;2022-09-21T15:44:23;18.50;37.90
1337;DHT22;662;48.814;9.318;2022-09-21T15:46:54;18.40;38.50
1337;DHT22;662;48.814;9.318;2022-09-21T15:49:26;18.40;39.10
1337;DHT22;662;48.814;9.318;2022-09-21T15:52:04;18.30;38.90
1337;DHT22;662;48.814;9.318;2022-09-21T15:54:49;18.20;39.00
1337;DHT22;662;48.814;9.318;2022-09-21T15:57:33;18.10;39.40
1337;DHT22;662;48.814;9.318;2022-09-21T16:00:01;18.10;40.00
1337;DHT22;662;48.814;9.318;2022-09-21T16:02:34;18.10;40.70
1337;DHT22;662;48.814;9.318;2022-09-21T16:05:01;18.10;40.90
1337;DHT22;662;48.814;9.318;2022-09-21T16:09:57;18.20;41.20
1337;DHT22;662;48.814;9.318;2022-09-21T16:12:44;18.30;41.10
1337;DHT22;662;48.814;9.318;2022-09-21T16:15:37;18.30;41.20
1337;DHT22;662;48.814;9.318;2022-09-21T16:18:04;18.30;41.40
1337;DHT22;662;48.814;9.318;2022-09-21T16:20:49;18.20;41.20
1337;DHT22;662;48.814;9.318;2022-09-21T16:23:18;18.10;40.70
1337;DHT22;662;48.814;9.318;2022-09-21T16:25:53;18.10;40.80
1337;DHT22;662;48.814;9.318;2022-09-21T16:30:49;17.90;41.10
1337;DHT22;662;48.814;9.318;2022-09-21T16:38:44;17.80;42.20
1337;DHT22;662;48.814;9.318;2022-09-21T16:41:15;17.70;42.60
1337;DHT22;662;48.814;9.318;2022-09-21T16:43:41;17.60;42.80
1337;DHT22;662;48.814;9.318;2022-09-21T16:46:11;17.60;43.20
1337;DHT22;662;48.814;9.318;2022-09-21T16:48:37;17.50;43.50
1337;DHT22;662;48.814;9.318;2022-09-21T16:51:08;17.50;43.80
1337;DHT22;662;48.814;9.318;2022-09-21T16:53:35;17.50;44.10
1337;DHT22;662;48.814;9.318;2022-09-21T16:56:01;17.40;44.30
1337;DHT22;662;48.814;9.318;2022-09-21T16:58:27;17.30;44.60
1337;DHT22;662;48.814;9.318;2022-09-21T17:00:53;17.30;45.00
1337;DHT22;662;48.814;9.318;2022-09-21T17:03:19;17.20;45.00
1337;DHT22;662;48.814;9.318;2022-09-21T17:05:46;17.20;45.10
1337;DHT22;662;48.814;9.318;2022-09-21T17:08:12;17.10;45.20
1337;DHT22;662;48.814;9.318;2022-09-21T17:10:43;17.10;45.00
1337;DHT22;662;48.814;9.318;2022-09-21T17:13:10;17.00;45.20
1337;DHT22;662;48.814;9.318;2022-09-21T17:15:40;17.00;45.60
1337;DHT22;662;48.814;9.318;2022-09-21T17:18:09;17.00;45.90
1337;DHT22;662;48.814;9.318;2022-09-21T17:20:41;16.90;46.10
1337;DHT22;662;48.814;9.318;2022-09-21T17:23:07;16.90;46.00
1337;DHT22;662;48.814;9.318;2022-09-21T17:25:36;16.80;46.10
1337;DHT22;662;48.814;9.318;2022-09-21T17:28:09;16.70;46.30
1337;DHT22;662;48.814;9.318;2022-09-21T17:30:36;16.70;46.50
1337;DHT22;662;48.814;9.318;2022-09-21T17:33:02;16.60;46.60
1337;DHT22;662;48.814;9.318;2022-09-21T17:37:55;16.50;47.00
1337;DHT22;662;48.814;9.318;2022-09-21T17:40:21;16.40;47.00
1337;DHT22;662;48.814;9.318;2022-09-21T17:42:49;16.40;47.10
1337;DHT22;662;48.814;9.318;2022-09-21T17:47:52;16.20;47.30
1337;DHT22;662;48.814;9.318;2022-09-21T17:50:24;16.10;47.50
1337;DHT22;662;48.814;9.318;2022-09-21T17:52:51;16.10;47.80
1337;DHT22;662;48.814;9.318;2022-09-21T17:55:42;16.10;48.00
1337;DHT22;662;48.814;9.318;2022-09-21T18:03:21;15.90;48.60
1337;DHT22;662;48.814;9.318;2022-09-21T18:05:48;15.80;48.60
1337;DHT22;662;48.814;9.318;2022-09-21T18:08:16;15.80;48.90
1337;DHT22;662;48.814;9.318;2022-09-21T18:10:48;15.80;48.90
1337;DHT22;662;48.814;9.318;2022-09-21T18:16:33;15.70;49.00
1337;DHT22;662;48.814;9.318;2022-09-21T18:19:03;15.60;48.80
1337;DHT22;662;48.814;9.318;2022-09-21T18:21:30;15.50;48.90
1337;DHT22;662;48.814;9.318;2022-09-21T18:24:19;15.50;49.00
1337;DHT22;662;48.814;9.318;2022-09-21T18:26:46;15.40;49.30
1337;DHT22;662;48.814;9.318;2022-09-21T18:29:29;15.40;49.50
1337;DHT22;662;48.814;9.318;2022-09-21T18:38:17;15.20;50.00
1337;DHT22;662;48.814;9.318;2022-09-21T18:41:04;15.00;50.30
1337;DHT22;662;48.814;9.318;2022-09-21T18:54:33;14.80;51.30
1337;DHT22;662;48.814;9.318;2022-09-21T18:56:59;14.70;51.40
1337;DHT22;662;48.814;9.318;2022-09-21T18:59:25;14.70;51.60
1337;DHT22;662;48.814;9.318;2022-09-21T19:01:51;14.60;51.70
1337;DHT22;662;48.814;9.318;2022-09-21T19:04:17;14.60;52.00
1337;DHT22;662;48.814;9.318;2022-09-21T19:06:59;14.50;52.10
1337;DHT22;662;48.814;9.318;2022-09-21T19:09:41;14.40;52.40
1337;DHT22;662;48.814;9.318;2022-09-21T19:14:56;14.40;52.80
1337;DHT22;662;48.814;9.318;2022-09-21T19:17:35;14.40;52.90
1337;DHT22;662;48.814;9.318;2022-09-21T19:23:15;14.30;53.20
1337;DHT22;662;48.814;9.318;2022-09-21T19:26:00;14.20;53.20
1337;DHT22;662;48.814;9.318;2022-09-21T19:31:15;14.20;53.40
1337;DHT22;662;48.814;9.318;2022-09-21T19:33:44;14.10;53.50
1337;DHT22;662;48.814;9.318;2022-09-21T19:36:11;14.10;53.50
1337;DHT22;662;48.814;9.318;2022-09-21T19:38:38;14.00;53.70
1337;DHT22;662;48.814;9.318;2022-09-21T19:49:23;13.80;54.10
1337;DHT22;662;48.814;9.318;2022-09-21T19:51:52;13.80;54.30
1337;DHT22;662;48.814;9.318;2022-09-21T19:54:22;13.70;54.30
1337;DHT22;662;48.814;9.318;2022-09-21T19:57:15;13.70;54.40
1337;DHT22;662;48.814;9.318;2022-09-21T19:59:59;13.60;54.30
1337;DHT22;662;48.814;9.318;2022-09-21T20:02:28;13.50;54.30
1337;DHT22;662;48.814;9.318;2022-09-21T20:05:07;13.50;54.40
1337;DHT22;662;48.814;9.318;2022-09-21T20:10:44;13.40;54.50
1337;DHT22;662;48.814;9.318;2022-09-21T20:15:57;13.30;54.60
1337;DHT22;662;48.814;9.318;2022-09-21T20:18:40;13.30;54.70
1337;DHT22;662;48.814;9.318;2022-09-21T20:21:11;13.30;54.80
1337;DHT22;662;48.814;9.318;2022-09-21T20:23:37;13.30;54.80
1337;DHT22;662;48.814;9.318;2022-09-21T20:26:07;13.20;54.90
1337;DHT22;662;48.814;9.318;2022-09-21T20:28:38;13.20;54.90
1337;DHT22;662;48.814;9.318;2022-09-21T20:31:04;13.20;55.00
1337;DHT22;662;48.814;9.318;2022-09-21T20:33:30;13.20;55.00
1337;DHT22;662;48.814;9.318;2022-09-21T20:35:56;13.10;55.00
1337;DHT22;662;48.814;9.318;2022-09-21T20:38:22;13.10;55.00
1337;DHT22;662;48.814;9.318;2022-09-21T20:40:48;13.00;55.10
1337;DHT22;662;48.814;9.318;2022-09-21T20:43:13;13.00;55.20
1337;DHT22;662;48.814;9.318;2022-09-21T20:45:40;12.90;55.30
1337;DHT22;662;48.814;9.318;2022-09-21T20:48:14;12.90;55.40